Freeland, MI

11:41 AM EDT on September 16, 2014 (GMT -0400)
Mountain View | Change Station
CLOSE
Current Station
Personal Weather Station
Location: Freeland, MI
Elevation: 608 ft
Nearby Weather Stations

Elev 608 ft 43.47 °N, 84.12 °W | Updated 1 second ago

Partly Cloudy
Partly Cloudy
59.8 °F
Feels Like 59.8 °F
N
1.0
Wind Variable Wind from WSW
Gusts 5.0 mph

Today
High -- | Low -- °F
--% Chance of Precip.
Yesterday
High -- | Low -- °F
Precip. -- in
7:17 AM 7:44 PM
Last Quarter, 44% visible
Pressure 30.17 in
Visibility 10.0 miles
Clouds Few 900 ft
Dew Point 52 °F
Humidity 74%
Rainfall 0.01 in
Snow Depth Not available.
UV 4 out of 12
Pollen 4.50 out of 12
Ozone Good
PM2.5 Good
Flu Activity Not available.
METAR KMBS 161453Z 22003KT 10SM FEW009 14/11 A3017 RMK AO2 SLP217 T01390106 58001

More Conditions Fewer Conditions

Pressure 30.17 in
Visibility 10.0 miles
Clouds Few 900 ft
Dew Point 52 °F
Humidity 74%
Rainfall 0.01 in
Snow Depth Not available.
UV 4 out of 12
Pollen 4.50 out of 12
Ozone Good
PM2.5 Good
Flu Activity Not available.
METAR KMBS 161453Z 22003KT 10SM FEW009 14/11 A3017 RMK AO2 SLP217 T01390106 58001

More Conditions Fewer Conditions

10-Day Weather Forecast

Almanac

Astronomy

Sep. 16, 2014 Rise Set
Actual Time 7:17 AM EDT 7:44 PM EDT
Civil Twilight 6:48 AM EDT 8:13 PM EDT
Nautical Twilight 6:14 AM EDT 8:47 PM EDT
Astronomical Twilight 5:39 AM EDT 9:22 PM EDT
Moon 12:18 AM EDT 3:15 PM EDT
Length of Visible Light 13h 25m
Length of Day
12h 27m
Tomorrow will be 2m 56s shorter.
Last Quarter, 44% of the Moon is Illuminated
Today
Last Quarter
Sep 24
New
Oct 1
First Quarter
Oct 8
Full
Oct 15
Last Quarter

Today's Extremes

State Highs State Lows

Community

WunderPhotos

Upload Photos

1,753,813 photos uploaded!

Nearby

Air Quality

  Air Quality AQ Index Pollutant
Yesterday Good
PM2.5
Yesterday Good
OZONE
Current Good
PM2.5
Current Good
OZONE
Tuesday Good
OZONE
Tuesday Good
PM2.5
Wednesday Good
OZONE
Wednesday Good
PM2.5
Thursday Good
OZONE
Thursday Good
PM2.5
Friday Good
OZONE
Friday Good
PM2.5
Saturday Good
OZONE
Saturday Good
PM2.5

Snow Depth

Station Depth Elevation
No new snow has been reported.

Earthquake Activity

City Distance Mag. Time & Date
No recent earthquake activity has been reported nearby.
Minimum magnitude displayed is 2.5.

Coastal Water Temperatures

Place Temperature
Harbor Beach, MI 57.0 °F

Nearby Weather Stations